createdAt,value
2022-08-30T00:00:55.573Z,0.00
2022-08-30T00:01:55.578Z,0.00
2022-08-30T00:02:55.666Z,0.00
2022-08-30T00:03:55.694Z,0.00
2022-08-30T00:04:55.586Z,0.00
2022-08-30T00:05:56.453Z,0.00
2022-08-30T00:06:55.579Z,0.00
2022-08-30T00:07:55.585Z,0.00
2022-08-30T00:08:55.591Z,0.00
2022-08-30T00:09:55.581Z,0.00
2022-08-30T00:10:55.599Z,0.00
2022-08-30T00:11:55.591Z,0.00
2022-08-30T00:12:55.588Z,0.00
2022-08-30T00:13:55.584Z,0.00
2022-08-30T00:14:55.585Z,0.00
2022-08-30T00:15:55.636Z,0.00
2022-08-30T00:16:55.584Z,0.00
2022-08-30T00:17:55.585Z,0.00
2022-08-30T00:18:55.586Z,0.00
2022-08-30T00:19:55.589Z,0.00
2022-08-30T00:20:55.585Z,0.00
2022-08-30T00:21:55.591Z,0.00
2022-08-30T00:22:55.583Z,0.00
2022-08-30T00:23:55.591Z,0.00
2022-08-30T00:24:55.586Z,0.00
2022-08-30T00:25:55.596Z,0.00
2022-08-30T00:26:55.590Z,0.00
2022-08-30T00:27:55.591Z,0.00
2022-08-30T00:28:55.591Z,0.00
2022-08-30T00:29:55.596Z,0.00
2022-08-30T00:30:55.646Z,0.00
2022-08-30T00:31:55.598Z,0.00
2022-08-30T00:32:55.593Z,0.00
2022-08-30T00:33:55.599Z,0.00
2022-08-30T00:34:55.595Z,0.00
2022-08-30T00:35:55.599Z,0.00
2022-08-30T00:36:55.595Z,0.00
2022-08-30T00:37:55.598Z,0.00
2022-08-30T00:38:55.599Z,0.00
2022-08-30T00:39:55.605Z,0.00
2022-08-30T00:40:55.594Z,0.00
2022-08-30T00:41:55.603Z,0.00
2022-08-30T00:42:59.303Z,0.00
2022-08-30T00:43:55.653Z,0.00
2022-08-30T00:44:55.604Z,0.00
2022-08-30T00:45:55.673Z,0.00
2022-08-30T00:46:55.604Z,0.00
2022-08-30T00:47:55.602Z,0.00
2022-08-30T00:48:55.604Z,0.00
2022-08-30T00:49:55.603Z,0.00
2022-08-30T00:50:55.613Z,0.00
2022-08-30T00:51:55.606Z,0.00
2022-08-30T00:52:55.601Z,0.00
2022-08-30T00:53:55.603Z,0.00
2022-08-30T00:54:55.608Z,0.00
2022-08-30T00:55:55.607Z,0.00
2022-08-30T00:56:55.612Z,0.00
2022-08-30T00:57:55.606Z,0.00
2022-08-30T00:58:55.608Z,0.00
2022-08-30T00:59:55.614Z,0.00
2022-08-30T01:00:55.613Z,0.00
2022-08-30T01:01:55.799Z,0.00
2022-08-30T01:02:55.665Z,0.00
2022-08-30T01:03:55.613Z,0.00
2022-08-30T01:04:55.611Z,0.00
2022-08-30T01:05:55.613Z,0.00
2022-08-30T01:06:55.684Z,0.00
2022-08-30T01:07:55.617Z,0.00
2022-08-30T01:08:55.613Z,0.00
2022-08-30T01:09:55.612Z,0.00
2022-08-30T01:10:55.617Z,0.00
2022-08-30T01:11:55.613Z,0.00
2022-08-30T01:12:55.615Z,0.00
2022-08-30T01:13:55.619Z,0.00
2022-08-30T01:14:55.614Z,0.00
2022-08-30T01:15:55.832Z,0.00
2022-08-30T01:16:55.621Z,0.00
2022-08-30T01:17:55.619Z,0.00
2022-08-30T01:18:55.620Z,0.00
2022-08-30T01:19:55.630Z,0.00
2022-08-30T01:20:55.623Z,0.00
2022-08-30T01:21:55.618Z,0.00
2022-08-30T01:22:55.623Z,0.00
2022-08-30T01:23:55.625Z,0.00
2022-08-30T01:24:55.625Z,0.00
2022-08-30T01:25:55.622Z,0.00
2022-08-30T01:26:55.704Z,0.00
2022-08-30T01:27:55.627Z,0.00
2022-08-30T01:28:55.623Z,0.00
2022-08-30T01:29:55.625Z,0.00
2022-08-30T01:30:55.670Z,0.00
2022-08-30T01:31:55.627Z,0.00
2022-08-30T01:32:55.626Z,0.00
2022-08-30T01:33:55.624Z,0.00
2022-08-30T01:34:55.627Z,0.00
2022-08-30T01:35:55.631Z,0.00
2022-08-30T01:36:55.629Z,0.00
2022-08-30T01:37:55.627Z,0.00
2022-08-30T01:38:55.634Z,0.00
2022-08-30T01:39:55.631Z,0.00
2022-08-30T01:40:55.635Z,0.00
2022-08-30T01:41:55.633Z,0.00
2022-08-30T01:42:55.636Z,0.00
2022-08-30T01:43:55.637Z,0.00
2022-08-30T01:44:55.635Z,0.00
2022-08-30T01:45:55.677Z,0.00
2022-08-30T01:46:55.639Z,0.00
2022-08-30T01:47:55.638Z,0.00
2022-08-30T01:48:55.639Z,0.00
2022-08-30T01:49:55.634Z,0.00
2022-08-30T01:50:55.638Z,0.00
2022-08-30T01:52:00.471Z,0.00
2022-08-30T01:52:55.634Z,0.00
2022-08-30T01:53:55.640Z,0.00
2022-08-30T01:54:55.635Z,0.00
2022-08-30T01:55:55.646Z,0.00
2022-08-30T01:56:55.640Z,0.00
2022-08-30T01:57:55.639Z,0.00
2022-08-30T01:58:59.204Z,0.00
2022-08-30T01:59:55.644Z,0.00
2022-08-30T02:00:55.702Z,0.00
2022-08-30T02:01:55.640Z,0.00
2022-08-30T02:02:55.639Z,0.00
2022-08-30T02:03:55.765Z,0.00
2022-08-30T02:04:55.640Z,0.00
2022-08-30T02:05:55.644Z,0.00
2022-08-30T02:06:55.641Z,0.00
2022-08-30T02:07:55.639Z,0.00
2022-08-30T02:08:55.650Z,0.00
2022-08-30T02:09:55.640Z,0.00
2022-08-30T02:10:55.649Z,0.00
2022-08-30T02:11:55.646Z,0.00
2022-08-30T02:12:55.646Z,0.00
2022-08-30T02:13:55.647Z,0.00
2022-08-30T02:14:55.644Z,0.00
2022-08-30T02:15:55.651Z,0.00
2022-08-30T02:16:55.812Z,0.00
2022-08-30T02:17:55.648Z,0.00
2022-08-30T02:18:55.650Z,0.00
2022-08-30T02:19:55.647Z,0.00
2022-08-30T02:20:55.650Z,0.00
2022-08-30T02:21:55.653Z,0.00
2022-08-30T02:22:58.542Z,0.00
2022-08-30T02:23:55.659Z,0.00
2022-08-30T02:24:55.654Z,0.00
2022-08-30T02:25:55.656Z,0.00
2022-08-30T02:26:55.651Z,0.00
2022-08-30T02:27:55.649Z,0.00
2022-08-30T02:28:55.653Z,0.00
2022-08-30T02:29:55.654Z,0.00
2022-08-30T02:30:55.717Z,0.00
2022-08-30T02:31:55.654Z,0.00
2022-08-30T02:32:55.654Z,0.00
2022-08-30T02:33:55.660Z,0.00
2022-08-30T02:34:55.656Z,0.00
2022-08-30T02:35:55.660Z,0.00
2022-08-30T02:36:55.658Z,0.00
2022-08-30T02:37:55.658Z,0.00
2022-08-30T02:38:55.655Z,0.00
2022-08-30T02:39:55.655Z,0.00
2022-08-30T02:40:55.657Z,0.00
2022-08-30T02:41:55.656Z,0.00
2022-08-30T02:42:55.664Z,0.00
2022-08-30T02:43:55.661Z,4.00
2022-08-30T02:44:55.659Z,8.00
2022-08-30T02:45:55.753Z,8.00
2022-08-30T02:46:55.654Z,8.00
2022-08-30T02:47:55.661Z,8.00
2022-08-30T02:48:55.662Z,8.00
2022-08-30T02:49:55.661Z,8.00
2022-08-30T02:50:55.664Z,8.00
2022-08-30T02:51:55.665Z,8.00
2022-08-30T02:52:55.701Z,8.00
2022-08-30T02:53:55.666Z,8.00
2022-08-30T02:54:55.661Z,8.00
2022-08-30T02:55:55.667Z,8.00
2022-08-30T02:56:55.664Z,8.00
2022-08-30T02:57:55.667Z,8.00
2022-08-30T02:58:55.670Z,8.00
2022-08-30T02:59:55.667Z,8.00
2022-08-30T03:00:55.732Z,8.00
2022-08-30T03:01:55.681Z,8.00
2022-08-30T03:02:55.669Z,8.00
2022-08-30T03:03:55.718Z,8.00
2022-08-30T03:04:55.670Z,8.00
2022-08-30T03:05:55.668Z,8.00
2022-08-30T03:06:55.667Z,8.00
2022-08-30T03:07:55.670Z,8.00
2022-08-30T03:08:55.670Z,8.00
2022-08-30T03:09:55.674Z,8.00
2022-08-30T03:10:55.672Z,8.00
2022-08-30T03:11:55.670Z,8.00
2022-08-30T03:12:55.677Z,8.00
2022-08-30T03:13:55.670Z,8.00
2022-08-30T03:14:55.671Z,8.00
2022-08-30T03:15:55.670Z,4.00
2022-08-30T03:16:55.690Z,4.00
2022-08-30T03:17:55.674Z,4.00
2022-08-30T03:18:55.673Z,8.00
2022-08-30T03:19:55.673Z,4.00
2022-08-30T03:20:55.673Z,4.00
2022-08-30T03:21:55.672Z,4.00
2022-08-30T03:22:55.672Z,4.00
2022-08-30T03:23:55.673Z,4.00
2022-08-30T03:24:55.674Z,4.00
2022-08-30T03:25:55.676Z,4.00
2022-08-30T03:26:55.670Z,4.00
2022-08-30T03:27:55.677Z,4.00
2022-08-30T03:28:55.674Z,4.00
2022-08-30T03:29:55.676Z,4.00
2022-08-30T03:30:55.678Z,4.00
2022-08-30T03:31:55.733Z,4.00
2022-08-30T03:32:55.680Z,4.00
2022-08-30T03:33:55.674Z,4.00
2022-08-30T03:34:55.674Z,4.00
2022-08-30T03:35:55.678Z,4.00
2022-08-30T03:36:55.680Z,4.00
2022-08-30T03:37:56.228Z,4.00
2022-08-30T03:38:55.673Z,8.00
2022-08-30T03:39:55.681Z,8.00
2022-08-30T03:40:55.681Z,8.00
2022-08-30T03:41:55.676Z,8.00
2022-08-30T03:42:55.680Z,4.00
2022-08-30T03:43:59.863Z,8.00
2022-08-30T03:44:55.683Z,8.00
2022-08-30T03:45:55.734Z,12.00
2022-08-30T03:46:55.681Z,4.00
2022-08-30T03:47:55.683Z,4.00
2022-08-30T03:48:55.733Z,8.00
2022-08-30T03:49:55.685Z,4.00
2022-08-30T03:50:55.680Z,4.00
2022-08-30T03:51:55.687Z,12.00
2022-08-30T03:52:55.684Z,12.00
2022-08-30T03:53:55.679Z,12.00
2022-08-30T03:54:55.682Z,16.00
2022-08-30T03:55:55.692Z,16.00
2022-08-30T03:56:55.685Z,20.00
2022-08-30T03:57:55.686Z,20.00
2022-08-30T03:58:55.683Z,24.00
2022-08-30T03:59:55.687Z,28.00
2022-08-30T04:00:55.787Z,32.00
2022-08-30T04:01:55.762Z,36.00
2022-08-30T04:02:55.687Z,40.00
2022-08-30T04:03:55.685Z,48.00
2022-08-30T04:04:55.689Z,48.00
2022-08-30T04:05:55.684Z,56.00
2022-08-30T04:06:55.686Z,64.00
2022-08-30T04:07:55.684Z,72.00
2022-08-30T04:08:55.689Z,76.00
2022-08-30T04:09:55.685Z,84.00
2022-08-30T04:10:55.686Z,88.00
2022-08-30T04:11:55.690Z,100.00
2022-08-30T04:12:55.695Z,108.00
2022-08-30T04:13:55.690Z,120.00
2022-08-30T04:14:55.689Z,128.00
2022-08-30T04:15:55.691Z,136.00
2022-08-30T04:16:55.691Z,148.00
2022-08-30T04:17:55.690Z,160.00
2022-08-30T04:18:55.691Z,168.00
2022-08-30T04:19:55.689Z,180.00
2022-08-30T04:20:55.689Z,192.00
2022-08-30T04:21:55.689Z,204.00
2022-08-30T04:22:55.694Z,216.00
2022-08-30T04:23:55.693Z,228.00
2022-08-30T04:24:55.693Z,240.00
2022-08-30T04:25:55.696Z,256.00
2022-08-30T04:26:55.688Z,268.00
2022-08-30T04:27:55.694Z,276.00
2022-08-30T04:28:55.693Z,292.00
2022-08-30T04:29:56.343Z,308.00
2022-08-30T04:30:55.693Z,324.00
2022-08-30T04:31:55.727Z,344.00
2022-08-30T04:32:58.707Z,364.00
2022-08-30T04:33:55.692Z,384.00
2022-08-30T04:34:55.696Z,400.00
2022-08-30T04:35:55.694Z,416.00
2022-08-30T04:36:55.699Z,432.00
2022-08-30T04:37:55.693Z,444.00
2022-08-30T04:38:55.699Z,460.00
2022-08-30T04:39:55.694Z,488.00
2022-08-30T04:40:55.695Z,524.00
2022-08-30T04:41:55.697Z,556.00
2022-08-30T04:42:55.697Z,588.00
2022-08-30T04:43:55.701Z,612.00
2022-08-30T04:44:55.698Z,628.00
2022-08-30T04:45:55.737Z,632.00
2022-08-30T04:46:55.698Z,628.00
2022-08-30T04:47:56.417Z,624.00
2022-08-30T04:48:55.697Z,620.00
2022-08-30T04:49:55.700Z,632.00
2022-08-30T04:50:55.699Z,652.00
2022-08-30T04:51:55.698Z,680.00
2022-08-30T04:52:55.700Z,712.00
2022-08-30T04:53:55.700Z,756.00
2022-08-30T04:54:55.699Z,808.00
2022-08-30T04:55:55.704Z,844.00
2022-08-30T04:56:55.701Z,912.00
2022-08-30T04:57:55.696Z,964.00
2022-08-30T04:58:55.705Z,1020.00
2022-08-30T04:59:55.703Z,1060.00
2022-08-30T05:00:55.757Z,1096.00
2022-08-30T05:01:55.752Z,1140.00
2022-08-30T05:02:55.701Z,1180.00
2022-08-30T05:03:55.700Z,1200.00
2022-08-30T05:04:55.702Z,1216.00
2022-08-30T05:05:55.700Z,1228.00
2022-08-30T05:06:55.701Z,1212.00
2022-08-30T05:07:55.706Z,1192.00
2022-08-30T05:08:55.705Z,1176.00
2022-08-30T05:09:55.700Z,1176.00
2022-08-30T05:10:55.703Z,1188.00
2022-08-30T05:11:55.702Z,1220.00
2022-08-30T05:12:55.704Z,1256.00
2022-08-30T05:13:55.702Z,1304.00
2022-08-30T05:14:55.704Z,1352.00
2022-08-30T05:15:55.831Z,1416.00
2022-08-30T05:16:55.704Z,1480.00
2022-08-30T05:17:55.702Z,1520.00
2022-08-30T05:18:55.704Z,1548.00
2022-08-30T05:19:55.712Z,1568.00
2022-08-30T05:20:55.704Z,1568.00
2022-08-30T05:21:55.708Z,1568.00
2022-08-30T05:22:55.709Z,1568.00
2022-08-30T05:23:55.706Z,1560.00
2022-08-30T05:24:55.703Z,1552.00
2022-08-30T05:25:55.709Z,1536.00
2022-08-30T05:26:55.716Z,1524.00
2022-08-30T05:27:55.709Z,1472.00
2022-08-30T05:28:55.712Z,1424.00
2022-08-30T05:29:55.708Z,1384.00
2022-08-30T05:30:55.706Z,1416.00
2022-08-30T05:31:55.777Z,1472.00
2022-08-30T05:32:55.712Z,1520.00
2022-08-30T05:33:55.722Z,1532.00
2022-08-30T05:34:55.712Z,1584.00
2022-08-30T05:35:55.715Z,1652.00
2022-08-30T05:36:55.712Z,1696.00
2022-08-30T05:37:55.715Z,1756.00
2022-08-30T05:38:55.705Z,1880.00
2022-08-30T05:39:55.716Z,2100.00
2022-08-30T05:40:55.718Z,2268.00
2022-08-30T05:41:55.714Z,2392.00
2022-08-30T05:42:55.715Z,2416.00
2022-08-30T05:43:55.713Z,2432.00
2022-08-30T05:44:55.719Z,2536.00
2022-08-30T05:45:55.714Z,2476.00
2022-08-30T05:46:55.715Z,2348.00
2022-08-30T05:47:55.710Z,2388.00
2022-08-30T05:48:55.717Z,2348.00
2022-08-30T05:49:55.713Z,2288.00
2022-08-30T05:50:55.714Z,2288.00
2022-08-30T05:51:55.717Z,2380.00
2022-08-30T05:52:55.718Z,2424.00
2022-08-30T05:53:55.716Z,2360.00
2022-08-30T05:54:55.716Z,2360.00
2022-08-30T05:55:55.714Z,2388.00
2022-08-30T05:56:55.721Z,2356.00
2022-08-30T05:57:55.718Z,2408.00
2022-08-30T05:58:55.723Z,2452.00
2022-08-30T05:59:55.719Z,2592.00
2022-08-30T06:00:55.721Z,2672.00
2022-08-30T06:01:55.744Z,2808.00
2022-08-30T06:02:55.764Z,2964.00
2022-08-30T06:03:57.602Z,3032.00
2022-08-30T06:04:55.722Z,3144.00
2022-08-30T06:05:55.726Z,3184.00
2022-08-30T06:06:55.726Z,3228.00
2022-08-30T06:07:55.721Z,3300.00
2022-08-30T06:08:55.727Z,3388.00
2022-08-30T06:09:55.724Z,3532.00
2022-08-30T06:10:55.728Z,3680.00
2022-08-30T06:11:55.722Z,3896.00
2022-08-30T06:12:55.724Z,4120.00
2022-08-30T06:13:55.727Z,4372.00
2022-08-30T06:14:55.729Z,4584.00
2022-08-30T06:15:55.802Z,4696.00
2022-08-30T06:16:55.727Z,4856.00
2022-08-30T06:17:55.731Z,5120.00
2022-08-30T06:18:55.734Z,5360.00
2022-08-30T06:19:55.727Z,5548.00
2022-08-30T06:20:55.734Z,5688.00
2022-08-30T06:21:55.727Z,5452.00
2022-08-30T06:22:55.730Z,5196.00
2022-08-30T06:23:55.734Z,4816.00
2022-08-30T06:24:58.026Z,4484.00
2022-08-30T06:25:55.734Z,4256.00
2022-08-30T06:26:55.732Z,4264.00
2022-08-30T06:27:56.579Z,4332.00
2022-08-30T06:28:55.746Z,4352.00
2022-08-30T06:29:55.733Z,4344.00
2022-08-30T06:30:55.761Z,4396.00
2022-08-30T06:31:55.736Z,4408.00
2022-08-30T06:32:55.742Z,4492.00
2022-08-30T06:33:55.737Z,4636.00
2022-08-30T06:34:55.740Z,4696.00
2022-08-30T06:35:59.953Z,4728.00
2022-08-30T06:36:55.743Z,4868.00
2022-08-30T06:37:55.739Z,4984.00
2022-08-30T06:38:55.743Z,5144.00
2022-08-30T06:39:55.748Z,5200.00
2022-08-30T06:40:55.757Z,5132.00
2022-08-30T06:41:55.769Z,5128.00
2022-08-30T06:42:55.752Z,5016.00
2022-08-30T06:43:55.748Z,4992.00
2022-08-30T06:44:55.747Z,5028.00
2022-08-30T06:45:55.748Z,5184.00
2022-08-30T06:46:55.798Z,5372.00
2022-08-30T06:47:55.804Z,5372.00
2022-08-30T06:48:56.084Z,5556.00
2022-08-30T06:49:55.754Z,5348.00
2022-08-30T06:50:55.753Z,5388.00
2022-08-30T06:51:55.756Z,5376.00
2022-08-30T06:52:55.756Z,5232.00
2022-08-30T06:53:55.757Z,5304.00
2022-08-30T06:54:55.759Z,5320.00
2022-08-30T06:55:55.757Z,5316.00
2022-08-30T06:56:58.574Z,5644.00
2022-08-30T06:57:55.764Z,6124.00
2022-08-30T06:58:55.764Z,6420.00
2022-08-30T06:59:57.319Z,6696.00
2022-08-30T07:00:55.765Z,6984.00
2022-08-30T07:01:55.901Z,7260.00
2022-08-30T07:02:55.879Z,7584.00
2022-08-30T07:03:55.768Z,7816.00
2022-08-30T07:04:55.773Z,8004.00
2022-08-30T07:05:55.774Z,8188.00
2022-08-30T07:06:55.771Z,8072.00
2022-08-30T07:07:55.783Z,8176.00
2022-08-30T07:08:56.314Z,8596.00
2022-08-30T07:09:55.777Z,9040.00
2022-08-30T07:10:55.778Z,9500.00
2022-08-30T07:11:55.782Z,9780.00
2022-08-30T07:12:55.786Z,9720.00
2022-08-30T07:13:55.781Z,9440.00
2022-08-30T07:14:55.786Z,8820.00
2022-08-30T07:15:55.880Z,8396.00
2022-08-30T07:16:55.792Z,7940.00
2022-08-30T07:17:55.793Z,7304.00
2022-08-30T07:18:55.789Z,6904.00
2022-08-30T07:19:55.794Z,6852.00
2022-08-30T07:20:55.794Z,7048.00
2022-08-30T07:21:55.792Z,6964.00
2022-08-30T07:22:55.801Z,6276.00
2022-08-30T07:23:55.800Z,5568.00
2022-08-30T07:24:55.805Z,5332.00
2022-08-30T07:25:55.799Z,4960.00
2022-08-30T07:26:55.801Z,4380.00
2022-08-30T07:27:55.803Z,4196.00
2022-08-30T07:28:56.421Z,5016.00
2022-08-30T07:29:55.808Z,5612.00
2022-08-30T07:30:55.854Z,6376.00
2022-08-30T07:31:55.816Z,5804.00
2022-08-30T07:32:55.813Z,5008.00
2022-08-30T07:33:55.825Z,5316.00
2022-08-30T07:34:55.816Z,5836.00
2022-08-30T07:35:55.821Z,5752.00
2022-08-30T07:36:55.822Z,5848.00
2022-08-30T07:37:55.826Z,6204.00
2022-08-30T07:38:55.826Z,6628.00
2022-08-30T07:39:55.829Z,6300.00
2022-08-30T07:40:55.828Z,6288.00
2022-08-30T07:41:55.825Z,6552.00
2022-08-30T07:42:55.843Z,7088.00
2022-08-30T07:43:55.832Z,7692.00
2022-08-30T07:44:56.879Z,8652.00
2022-08-30T07:45:55.990Z,8816.00
2022-08-30T07:46:55.913Z,8600.00
2022-08-30T07:47:55.842Z,8060.00
2022-08-30T07:48:55.841Z,7340.00
2022-08-30T07:49:55.855Z,7164.00
2022-08-30T07:50:59.010Z,7568.00
2022-08-30T07:51:55.848Z,7512.00
2022-08-30T07:52:55.852Z,7436.00
2022-08-30T07:53:55.899Z,6944.00
2022-08-30T07:54:55.852Z,6608.00
2022-08-30T07:55:55.864Z,7428.00
2022-08-30T07:56:55.862Z,7948.00
2022-08-30T07:57:55.906Z,7920.00
2022-08-30T07:58:55.860Z,7732.00
2022-08-30T07:59:55.868Z,7488.00
2022-08-30T08:00:55.866Z,6648.00
2022-08-30T08:01:55.911Z,6612.00
2022-08-30T08:02:55.989Z,7516.00
2022-08-30T08:03:55.874Z,8836.00
2022-08-30T08:04:55.878Z,9540.00
2022-08-30T08:05:55.875Z,9732.00
2022-08-30T08:06:55.881Z,9600.00
2022-08-30T08:07:55.884Z,9508.00
2022-08-30T08:08:55.889Z,8644.00
2022-08-30T08:09:55.887Z,7900.00
2022-08-30T08:10:55.890Z,6204.00
2022-08-30T08:11:55.891Z,5932.00
2022-08-30T08:12:55.898Z,6224.00
2022-08-30T08:13:55.900Z,6028.00
2022-08-30T08:14:55.901Z,5764.00
2022-08-30T08:15:55.974Z,5956.00
2022-08-30T08:16:55.902Z,6236.00
2022-08-30T08:17:55.904Z,6680.00
2022-08-30T08:18:55.909Z,7420.00
2022-08-30T08:19:55.909Z,8696.00
2022-08-30T08:20:56.056Z,10024.00
2022-08-30T08:22:15.665Z,10632.00
2022-08-30T08:22:55.914Z,10524.00
2022-08-30T08:23:55.920Z,11104.00
2022-08-30T08:24:55.921Z,12588.00
2022-08-30T08:25:55.923Z,14400.00
2022-08-30T08:26:55.925Z,15856.00
2022-08-30T08:27:57.467Z,37152.00
2022-08-30T08:28:55.936Z,29120.00
2022-08-30T08:29:55.934Z,29376.00
2022-08-30T08:30:55.968Z,17376.00
2022-08-30T08:31:55.937Z,13572.00
2022-08-30T08:32:55.944Z,13428.00
2022-08-30T08:33:55.963Z,12184.00
2022-08-30T08:34:55.946Z,12920.00
2022-08-30T08:35:55.950Z,23104.00
2022-08-30T08:36:55.951Z,26848.00
2022-08-30T08:37:55.955Z,19264.00
2022-08-30T08:38:55.957Z,17792.00
2022-08-30T08:39:55.963Z,25120.00
2022-08-30T08:40:55.964Z,20928.00
2022-08-30T08:41:55.971Z,15412.00
2022-08-30T08:42:55.977Z,13448.00
2022-08-30T08:43:55.978Z,12244.00
2022-08-30T08:44:55.981Z,11252.00
2022-08-30T08:45:56.021Z,11272.00
2022-08-30T08:46:55.988Z,11636.00
2022-08-30T08:47:55.995Z,12896.00
2022-08-30T08:49:00.514Z,12428.00
2022-08-30T08:49:56.001Z,11588.00
2022-08-30T08:50:59.419Z,12232.00
2022-08-30T08:51:56.012Z,12944.00
2022-08-30T08:52:56.013Z,12912.00
2022-08-30T08:53:56.013Z,11384.00
2022-08-30T08:54:56.021Z,9456.00
2022-08-30T08:55:56.021Z,9048.00
2022-08-30T08:56:56.024Z,9416.00
2022-08-30T08:57:56.033Z,9152.00
2022-08-30T08:58:56.035Z,8764.00
2022-08-30T08:59:56.081Z,9856.00
2022-08-30T09:00:56.048Z,11124.00
2022-08-30T09:01:58.237Z,13016.00
2022-08-30T09:02:56.133Z,15556.00
2022-08-30T09:03:56.062Z,17312.00
2022-08-30T09:04:56.167Z,18592.00
2022-08-30T09:05:56.064Z,18624.00
2022-08-30T09:06:56.065Z,16580.00
2022-08-30T09:07:56.069Z,16048.00
2022-08-30T09:08:56.074Z,16144.00
2022-08-30T09:09:56.080Z,16152.00
2022-08-30T09:10:56.082Z,15428.00
2022-08-30T09:11:56.091Z,12328.00
2022-08-30T09:12:59.875Z,10180.00
2022-08-30T09:13:56.094Z,8544.00
2022-08-30T09:14:56.107Z,7848.00
2022-08-30T09:15:56.144Z,7836.00
2022-08-30T09:16:56.109Z,8180.00
2022-08-30T09:17:56.120Z,8772.00
2022-08-30T09:18:56.120Z,9664.00
2022-08-30T09:19:56.124Z,10872.00
2022-08-30T09:20:56.127Z,12212.00
2022-08-30T09:21:56.132Z,12336.00
2022-08-30T09:22:56.136Z,12052.00
2022-08-30T09:23:56.145Z,10872.00
2022-08-30T09:24:56.148Z,9652.00
2022-08-30T09:25:56.142Z,9048.00
2022-08-30T09:26:56.155Z,8088.00
2022-08-30T09:27:56.160Z,7348.00
2022-08-30T09:28:56.168Z,6724.00
2022-08-30T09:29:56.167Z,6340.00
2022-08-30T09:30:56.280Z,6084.00
2022-08-30T09:32:25.200Z,6024.00
2022-08-30T09:32:56.181Z,5792.00
2022-08-30T09:33:56.183Z,5360.00
2022-08-30T09:34:56.193Z,5224.00
2022-08-30T09:35:56.190Z,5292.00
2022-08-30T09:36:56.197Z,5344.00
2022-08-30T09:37:56.208Z,5420.00
2022-08-30T09:38:56.204Z,5616.00
2022-08-30T09:39:56.212Z,5896.00
2022-08-30T09:40:56.214Z,6244.00
2022-08-30T09:41:56.222Z,6560.00
2022-08-30T09:42:56.224Z,6660.00
2022-08-30T09:43:56.231Z,6552.00
2022-08-30T09:44:56.231Z,6480.00
2022-08-30T09:45:56.276Z,6408.00
2022-08-30T09:46:56.244Z,6356.00
2022-08-30T09:47:56.242Z,6332.00
2022-08-30T09:48:56.246Z,6420.00
2022-08-30T09:49:56.253Z,6588.00
2022-08-30T09:50:56.261Z,6800.00
2022-08-30T09:51:56.261Z,7100.00
2022-08-30T09:52:56.265Z,7424.00
2022-08-30T09:54:19.413Z,7744.00
2022-08-30T09:54:56.273Z,7920.00
2022-08-30T09:55:56.278Z,7924.00
2022-08-30T09:56:56.281Z,7932.00
2022-08-30T09:57:56.282Z,8000.00
2022-08-30T09:58:56.336Z,8084.00
2022-08-30T09:59:56.296Z,8212.00
2022-08-30T10:00:56.334Z,8472.00
2022-08-30T10:01:56.298Z,8676.00
2022-08-30T10:02:56.303Z,8664.00
2022-08-30T10:03:56.306Z,8684.00
2022-08-30T10:04:56.310Z,8916.00
2022-08-30T10:05:56.455Z,9284.00
2022-08-30T10:06:56.323Z,9744.00
2022-08-30T10:07:56.320Z,10184.00
2022-08-30T10:08:56.326Z,10476.00
2022-08-30T10:09:56.328Z,10616.00
2022-08-30T10:10:56.335Z,10680.00
2022-08-30T10:11:56.341Z,10728.00
2022-08-30T10:12:56.338Z,10836.00
2022-08-30T10:13:56.348Z,11036.00
2022-08-30T10:14:56.345Z,11364.00
2022-08-30T10:15:56.352Z,11644.00
2022-08-30T10:16:56.361Z,11964.00
2022-08-30T10:17:56.373Z,12292.00
2022-08-30T10:18:56.373Z,12568.00
2022-08-30T10:19:56.367Z,12956.00
2022-08-30T10:20:56.372Z,13376.00
2022-08-30T10:21:56.380Z,13840.00
2022-08-30T10:22:58.668Z,14452.00
2022-08-30T10:23:56.389Z,15272.00
2022-08-30T10:24:56.390Z,16244.00
2022-08-30T10:25:56.394Z,17280.00
2022-08-30T10:26:56.399Z,18240.00
2022-08-30T10:27:56.406Z,19232.00
2022-08-30T10:28:56.404Z,19616.00
2022-08-30T10:29:56.410Z,19904.00
2022-08-30T10:30:56.415Z,20032.00
2022-08-30T10:31:56.421Z,20448.00
2022-08-30T10:32:56.435Z,18304.00
2022-08-30T10:33:56.428Z,18176.00
2022-08-30T10:34:56.436Z,20480.00
2022-08-30T10:35:56.439Z,23680.00
2022-08-30T10:36:56.443Z,24832.00
2022-08-30T10:37:56.447Z,22112.00
2022-08-30T10:38:56.453Z,22240.00
2022-08-30T10:39:56.516Z,22784.00
2022-08-30T10:40:56.464Z,23872.00
2022-08-30T10:41:56.464Z,20416.00
2022-08-30T10:42:56.475Z,19072.00
2022-08-30T10:43:56.480Z,18624.00
2022-08-30T10:44:56.482Z,18304.00
2022-08-30T10:45:56.490Z,18304.00
2022-08-30T10:46:56.498Z,18528.00
2022-08-30T10:47:56.500Z,18816.00
2022-08-30T10:48:56.508Z,19168.00
2022-08-30T10:49:56.516Z,19744.00
2022-08-30T10:50:56.520Z,22240.00
2022-08-30T10:51:58.767Z,26880.00
2022-08-30T10:52:56.532Z,25472.00
2022-08-30T10:53:56.541Z,28768.00
2022-08-30T10:54:56.540Z,24384.00
2022-08-30T10:55:56.549Z,20128.00
2022-08-30T10:56:56.560Z,17920.00
2022-08-30T10:57:56.561Z,16104.00
2022-08-30T10:58:56.623Z,15240.00
2022-08-30T10:59:56.581Z,14776.00
2022-08-30T11:00:56.623Z,14456.00
2022-08-30T11:01:56.590Z,14204.00
2022-08-30T11:02:56.590Z,14016.00
2022-08-30T11:03:56.602Z,13876.00
2022-08-30T11:04:56.610Z,13748.00
2022-08-30T11:05:56.613Z,13652.00
2022-08-30T11:06:56.622Z,13596.00
2022-08-30T11:07:56.627Z,13484.00
2022-08-30T11:08:56.634Z,13280.00
2022-08-30T11:09:56.645Z,12980.00
2022-08-30T11:10:56.646Z,12548.00
2022-08-30T11:11:56.657Z,11980.00
2022-08-30T11:12:56.659Z,11380.00
2022-08-30T11:13:57.533Z,10900.00
2022-08-30T11:14:56.675Z,10536.00
2022-08-30T11:15:56.681Z,10340.00
2022-08-30T11:16:56.690Z,10272.00
2022-08-30T11:17:56.711Z,10256.00
2022-08-30T11:18:56.701Z,10344.00
2022-08-30T11:19:56.707Z,10536.00
2022-08-30T11:20:56.713Z,10836.00
2022-08-30T11:21:56.721Z,11552.00
2022-08-30T11:22:56.727Z,13764.00
2022-08-30T11:23:56.738Z,13184.00
2022-08-30T11:24:56.741Z,11760.00
2022-08-30T11:25:58.083Z,11372.00
2022-08-30T11:26:56.752Z,11080.00
2022-08-30T11:27:56.762Z,10768.00
2022-08-30T11:28:56.767Z,10500.00
2022-08-30T11:29:56.769Z,10340.00
2022-08-30T11:30:56.775Z,10316.00
2022-08-30T11:31:56.785Z,10424.00
2022-08-30T11:32:56.794Z,10588.00
2022-08-30T11:33:56.796Z,10772.00
2022-08-30T11:34:56.800Z,11012.00
2022-08-30T11:35:56.809Z,11240.00
2022-08-30T11:36:56.814Z,11284.00
2022-08-30T11:37:56.818Z,11152.00
2022-08-30T11:38:56.825Z,11000.00
2022-08-30T11:39:56.833Z,10856.00
2022-08-30T11:40:56.853Z,10764.00
2022-08-30T11:41:56.845Z,10756.00
2022-08-30T11:42:56.852Z,10840.00
2022-08-30T11:43:56.860Z,10972.00
2022-08-30T11:44:56.866Z,11104.00
2022-08-30T11:45:56.945Z,11256.00
2022-08-30T11:46:56.877Z,11512.00
2022-08-30T11:47:56.883Z,11852.00
2022-08-30T11:48:56.886Z,12324.00
2022-08-30T11:49:56.891Z,12840.00
2022-08-30T11:50:56.901Z,13400.00
2022-08-30T11:52:26.387Z,14020.00
2022-08-30T11:52:56.910Z,14948.00
2022-08-30T11:53:56.919Z,15684.00
2022-08-30T11:54:56.918Z,16696.00
2022-08-30T11:55:56.927Z,17792.00
2022-08-30T11:56:56.931Z,17888.00
2022-08-30T11:57:56.941Z,18144.00
2022-08-30T11:58:56.945Z,18304.00
2022-08-30T11:59:56.952Z,18432.00
2022-08-30T12:00:56.960Z,18496.00
2022-08-30T12:01:57.066Z,18464.00
2022-08-30T12:02:59.149Z,18400.00
2022-08-30T12:03:56.975Z,17856.00
2022-08-30T12:04:56.979Z,17056.00
2022-08-30T12:05:58.945Z,15960.00
2022-08-30T12:06:57.004Z,14988.00
2022-08-30T12:07:57.002Z,14132.00
2022-08-30T12:09:02.546Z,13380.00
2022-08-30T12:09:57.015Z,12760.00
2022-08-30T12:10:57.022Z,12268.00
2022-08-30T12:11:57.027Z,11856.00
2022-08-30T12:12:57.033Z,11540.00
2022-08-30T12:13:57.040Z,11320.00
2022-08-30T12:14:57.041Z,11140.00
2022-08-30T12:15:57.057Z,11000.00
2022-08-30T12:16:57.103Z,10916.00
2022-08-30T12:17:57.365Z,10884.00
2022-08-30T12:18:57.070Z,10880.00
2022-08-30T12:19:57.079Z,10908.00
2022-08-30T12:20:57.089Z,11016.00
2022-08-30T12:21:57.087Z,11208.00
2022-08-30T12:22:57.099Z,11480.00
2022-08-30T12:23:57.101Z,11724.00